Time;durP1;ratioP1;P1;durP2;ratioP2;P2;SDS_P1;SDS_P2;PMS_P1;PMS_P2;Temp;Humidity;BMP_temperature;BMP_pressure;BME280_temperature;BME280_humidity;BME280_pressure;Samples;Min_cycle;Max_cycle;Signal;HPM_P1;HPM_P2
2023/10/30 00:00:34;;;;;;;5.73;4.23;;;12.80;99.90;;;;;;5015203;28;20492;-66
2023/10/30 00:03:00;;;;;;;6.80;4.80;;;12.70;99.90;;;;;;5014871;28;20454;-66
2023/10/30 00:05:25;;;;;;;4.30;3.70;;;12.70;99.90;;;;;;5015150;28;20171;-66
2023/10/30 00:07:51;;;;;;;5.40;4.90;;;12.70;99.90;;;;;;5015018;28;20245;-66
2023/10/30 00:10:16;;;;;;;7.60;4.97;;;12.70;99.90;;;;;;5014952;28;20190;-65
2023/10/30 00:12:42;;;;;;;6.80;3.80;;;12.70;99.90;;;;;;5014704;28;20179;-66
2023/10/30 00:15:08;;;;;;;6.13;4.00;;;12.70;99.90;;;;;;5014880;28;20254;-66
2023/10/30 00:17:34;;;;;;;6.07;4.87;;;12.80;99.90;;;;;;5014793;28;20225;-66
2023/10/30 00:19:59;;;;;;;5.80;5.30;;;12.80;99.90;;;;;;5015067;28;20798;-66
2023/10/30 00:22:25;;;;;;;6.77;5.27;;;12.80;99.90;;;;;;5014914;28;20690;-66
2023/10/30 00:24:50;;;;;;;6.73;5.07;;;12.80;99.90;;;;;;5014449;28;20217;-66
2023/10/30 00:27:16;;;;;;;5.03;4.63;;;12.70;99.90;;;;;;5014577;28;20194;-66
2023/10/30 00:29:42;;;;;;;7.07;6.37;;;12.70;99.90;;;;;;5014890;28;20640;-66
2023/10/30 00:32:08;;;;;;;6.40;5.40;;;12.70;99.90;;;;;;5014799;28;20274;-66
2023/10/30 00:34:34;;;;;;;6.27;5.40;;;12.60;99.90;;;;;;5014393;28;20182;-66
2023/10/30 00:37:00;;;;;;;6.23;5.33;;;12.60;99.90;;;;;;5014119;28;20198;-66
2023/10/30 00:39:25;;;;;;;5.17;4.70;;;12.60;99.90;;;;;;5014612;28;20460;-66
2023/10/30 00:41:51;;;;;;;4.37;3.90;;;12.60;99.90;;;;;;5014410;28;20175;-67
2023/10/30 00:44:16;;;;;;;6.47;4.50;;;12.60;99.90;;;;;;5014095;28;20246;-66
2023/10/30 00:46:43;;;;;;;4.60;3.63;;;12.60;99.90;;;;;;5014285;28;20205;-66
2023/10/30 00:49:09;;;;;;;4.20;3.80;;;12.70;99.90;;;;;;5014296;28;20186;-66
2023/10/30 00:51:34;;;;;;;4.40;3.77;;;12.60;99.90;;;;;;5014236;28;20417;-66
2023/10/30 00:54:00;;;;;;;4.60;4.20;;;12.60;99.90;;;;;;5014022;28;20265;-66
2023/10/30 00:56:25;;;;;;;3.87;3.47;;;12.60;99.90;;;;;;5014101;28;20273;-66
2023/10/30 00:58:50;;;;;;;5.30;4.00;;;12.60;99.90;;;;;;5014004;28;20187;-66
2023/10/30 01:01:17;;;;;;;4.30;3.90;;;12.70;99.90;;;;;;5014014;28;20171;-66
2023/10/30 01:03:44;;;;;;;4.43;3.50;;;12.70;99.90;;;;;;5013877;28;20197;-66
2023/10/30 01:06:09;;;;;;;5.40;3.83;;;12.70;99.90;;;;;;5014023;28;20928;-66
2023/10/30 01:08:35;;;;;;;7.63;5.77;;;12.80;99.90;;;;;;5012508;28;20528;-66
2023/10/30 01:11:00;;;;;;;6.90;5.37;;;12.70;99.90;;;;;;5013942;28;20174;-66
2023/10/30 01:13:26;;;;;;;4.83;4.40;;;12.70;99.90;;;;;;5013529;28;20298;-67
2023/10/30 01:15:55;;;;;;;4.03;3.63;;;12.70;99.90;;;;;;5013689;28;20674;-66
2023/10/30 01:18:21;;;;;;;7.60;4.90;;;12.70;99.90;;;;;;5013671;28;20186;-66
2023/10/30 01:20:47;;;;;;;5.37;4.37;;;12.80;99.90;;;;;;5013765;28;20414;-66
2023/10/30 01:23:16;;;;;;;3.90;3.50;;;12.80;99.90;;;;;;5013448;28;20452;-66
2023/10/30 01:25:41;;;;;;;5.37;3.57;;;12.80;99.90;;;;;;5013763;28;20194;-66
2023/10/30 01:28:07;;;;;;;5.70;4.30;;;12.70;99.90;;;;;;5013440;28;20489;-66
2023/10/30 01:30:33;;;;;;;6.47;4.93;;;12.70;99.90;;;;;;5013546;28;20186;-66
2023/10/30 01:32:59;;;;;;;5.50;4.00;;;12.70;99.90;;;;;;5013252;28;20182;-66
2023/10/30 01:35:25;;;;;;;4.83;4.07;;;12.70;99.90;;;;;;5013439;28;20199;-66
2023/10/30 01:37:51;;;;;;;5.13;4.03;;;12.80;99.90;;;;;;5013334;28;20774;-66
2023/10/30 01:40:16;;;;;;;4.97;4.10;;;12.80;99.90;;;;;;5013301;28;20535;-66
2023/10/30 01:42:42;;;;;;;4.50;3.87;;;12.80;99.90;;;;;;5012985;28;20532;-66
2023/10/30 01:45:08;;;;;;;4.53;3.03;;;12.90;99.90;;;;;;5013259;28;20584;-66
2023/10/30 01:47:34;;;;;;;5.37;2.30;;;12.90;99.90;;;;;;5013205;28;20187;-66
2023/10/30 01:50:01;;;;;;;2.57;2.13;;;12.90;99.90;;;;;;5012482;28;20417;-66
2023/10/30 01:52:29;;;;;;;3.60;3.30;;;12.90;99.90;;;;;;5013114;28;20167;-67
2023/10/30 01:54:55;;;;;;;3.80;3.17;;;12.90;99.90;;;;;;5012851;28;20489;-66
2023/10/30 01:57:22;;;;;;;3.50;3.20;;;12.90;99.90;;;;;;5013008;28;20450;-66
2023/10/30 01:59:51;;;;;;;4.83;4.40;;;12.90;99.90;;;;;;5013044;28;20233;-66
2023/10/30 02:02:29;;;;;;;5.27;4.07;;;12.80;99.90;;;;;;5012649;28;20434;-66
2023/10/30 02:04:54;;;;;;;4.53;3.23;;;12.80;99.90;;;;;;5012692;28;20425;-66
2023/10/30 02:07:20;;;;;;;5.43;4.70;;;12.90;99.90;;;;;;5012857;28;20445;-66
2023/10/30 02:09:46;;;;;;;4.13;3.73;;;12.80;99.90;;;;;;5012875;28;20175;-66
2023/10/30 02:12:12;;;;;;;4.50;4.10;;;12.90;99.90;;;;;;5012817;28;20229;-66
2023/10/30 02:14:37;;;;;;;5.00;4.60;;;12.90;99.90;;;;;;5012448;28;20417;-66
2023/10/30 02:17:03;;;;;;;4.07;3.77;;;12.80;99.90;;;;;;5012644;28;20195;-67
2023/10/30 02:19:29;;;;;;;5.63;3.57;;;12.90;99.90;;;;;;5012689;28;20203;-66
2023/10/30 02:21:55;;;;;;;3.67;3.37;;;12.80;99.90;;;;;;5012760;28;20695;-66
2023/10/30 02:24:22;;;;;;;3.80;3.50;;;12.80;99.90;;;;;;5012274;28;20205;-67
2023/10/30 02:26:50;;;;;;;4.30;3.30;;;12.80;99.90;;;;;;5012590;28;20505;-66
2023/10/30 02:29:17;;;;;;;4.13;3.23;;;12.80;99.90;;;;;;5012359;28;20556;-66
2023/10/30 02:31:43;;;;;;;5.90;3.53;;;12.80;99.90;;;;;;5012466;28;20422;-66
2023/10/30 02:34:11;;;;;;;4.57;3.27;;;12.80;99.90;;;;;;5012131;28;20422;-67
2023/10/30 02:36:36;;;;;;;6.13;3.40;;;12.80;99.90;;;;;;5012337;28;20445;-67
2023/10/30 02:39:03;;;;;;;4.27;3.97;;;12.70;99.90;;;;;;5012254;28;20434;-66
2023/10/30 02:41:31;;;;;;;3.83;3.37;;;12.70;99.90;;;;;;5012358;28;20163;-66
2023/10/30 02:43:57;;;;;;;4.53;4.20;;;12.60;99.90;;;;;;5012129;28;20433;-66
2023/10/30 02:46:23;;;;;;;4.53;4.13;;;12.50;99.90;;;;;;5012316;28;20421;-66
2023/10/30 02:48:49;;;;;;;4.10;3.70;;;12.40;99.90;;;;;;5012392;28;20457;-66
2023/10/30 02:51:15;;;;;;;3.73;3.43;;;12.40;99.90;;;;;;5012300;28;20171;-66
2023/10/30 02:53:40;;;;;;;4.60;3.10;;;12.30;99.90;;;;;;5012010;28;20942;-66
2023/10/30 02:56:06;;;;;;;3.90;3.03;;;12.30;99.90;;;;;;5012235;28;20206;-66
2023/10/30 02:58:31;;;;;;;3.40;3.10;;;12.30;99.90;;;;;;5012159;28;20191;-66
2023/10/30 03:00:57;;;;;;;3.13;2.83;;;12.30;99.90;;;;;;5014130;28;20194;-66
2023/10/30 03:03:23;;;;;;;3.13;2.93;;;12.30;99.90;;;;;;5016088;28;20574;-66
2023/10/30 03:05:49;;;;;;;4.23;3.20;;;12.30;99.90;;;;;;5016245;28;20421;-66
2023/10/30 03:08:14;;;;;;;3.70;3.10;;;12.30;99.90;;;;;;5016001;28;20190;-66
2023/10/30 03:10:40;;;;;;;4.37;3.13;;;12.40;99.90;;;;;;5016130;28;20425;-66
2023/10/30 03:13:05;;;;;;;2.80;2.60;;;12.40;99.90;;;;;;5016033;28;20171;-66
2023/10/30 03:15:31;;;;;;;4.63;3.30;;;12.30;99.90;;;;;;5016130;28;20194;-66
2023/10/30 03:17:56;;;;;;;2.87;2.63;;;12.30;99.90;;;;;;5016096;28;20191;-66
2023/10/30 03:20:22;;;;;;;4.43;2.13;;;12.30;99.90;;;;;;5015979;28;20174;-66
2023/10/30 03:22:47;;;;;;;2.30;2.10;;;12.30;99.90;;;;;;5015619;28;20174;-66
2023/10/30 03:25:14;;;;;;;2.63;2.43;;;12.40;99.90;;;;;;5015865;28;20177;-67
2023/10/30 03:27:39;;;;;;;2.77;2.57;;;12.30;99.90;;;;;;5015757;28;20599;-66
2023/10/30 03:30:06;;;;;;;3.37;3.07;;;12.30;99.90;;;;;;5015811;28;20422;-66
2023/10/30 03:32:32;;;;;;;3.27;2.90;;;12.30;99.90;;;;;;5015645;28;20655;-66
2023/10/30 03:34:58;;;;;;;5.60;2.90;;;12.30;99.90;;;;;;5015545;28;20504;-66
2023/10/30 03:37:24;;;;;;;3.03;2.83;;;12.30;99.90;;;;;;5015489;28;20290;-66
2023/10/30 03:39:49;;;;;;;3.77;3.37;;;12.20;99.90;;;;;;5015898;28;20425;-66
2023/10/30 03:42:15;;;;;;;2.80;2.60;;;12.20;99.90;;;;;;5015724;28;20594;-66
2023/10/30 03:44:40;;;;;;;2.40;2.20;;;12.30;99.90;;;;;;5015226;28;20175;-66
2023/10/30 03:47:06;;;;;;;2.10;1.90;;;12.30;99.90;;;;;;5015459;28;20202;-66
2023/10/30 03:49:31;;;;;;;2.23;2.03;;;12.20;99.90;;;;;;5015519;28;20629;-66
2023/10/30 03:51:57;;;;;;;5.63;2.03;;;12.20;99.90;;;;;;5015293;28;20178;-66
2023/10/30 03:54:22;;;;;;;2.93;2.47;;;12.20;99.90;;;;;;5015089;28;20167;-66
2023/10/30 03:56:48;;;;;;;1.90;1.80;;;12.20;99.90;;;;;;5013998;28;20694;-66
2023/10/30 03:59:17;;;;;;;2.20;1.97;;;12.10;99.90;;;;;;5015272;28;20202;-66
2023/10/30 04:01:42;;;;;;;2.50;2.30;;;12.00;99.90;;;;;;5015188;28;20536;-66
2023/10/30 04:04:08;;;;;;;2.10;1.90;;;11.90;99.90;;;;;;5014949;28;20414;-66
2023/10/30 04:06:37;;;;;;;2.23;2.13;;;11.90;99.90;;;;;;5015091;28;20171;-66
2023/10/30 04:09:06;;;;;;;2.93;2.40;;;11.90;99.90;;;;;;5015063;28;20198;-67
2023/10/30 04:11:32;;;;;;;2.60;2.07;;;11.80;99.90;;;;;;5014685;28;20421;-66
2023/10/30 04:13:57;;;;;;;2.30;2.03;;;11.80;99.90;;;;;;5014256;28;20504;-66
2023/10/30 04:16:23;;;;;;;2.70;2.50;;;11.80;99.90;;;;;;5014956;28;20532;-66
2023/10/30 04:18:48;;;;;;;10.13;2.47;;;11.80;99.90;;;;;;5014798;28;20341;-66
2023/10/30 04:21:14;;;;;;;2.50;2.30;;;11.80;99.90;;;;;;5014753;28;20645;-66
2023/10/30 04:23:42;;;;;;;3.30;2.07;;;11.80;99.90;;;;;;5014584;28;20261;-66
2023/10/30 04:26:08;;;;;;;1.80;1.70;;;11.80;99.90;;;;;;5014724;28;20175;-66
2023/10/30 04:28:33;;;;;;;2.40;2.10;;;11.70;99.90;;;;;;5014707;28;20457;-66
2023/10/30 04:30:59;;;;;;;2.40;2.27;;;11.70;99.90;;;;;;5014747;28;20214;-66
2023/10/30 04:33:24;;;;;;;3.73;2.47;;;11.70;99.90;;;;;;5014332;28;20171;-66
2023/10/30 04:35:50;;;;;;;2.43;2.27;;;11.70;99.90;;;;;;5014456;28;20193;-66
2023/10/30 04:38:16;;;;;;;2.40;2.30;;;11.70;99.90;;;;;;5014400;28;20257;-66
2023/10/30 04:40:41;;;;;;;2.73;2.40;;;11.70;99.90;;;;;;5014522;28;20249;-66
2023/10/30 04:43:07;;;;;;;3.40;1.90;;;11.70;99.90;;;;;;5014155;28;20633;-66
2023/10/30 04:45:32;;;;;;;2.50;2.30;;;11.70;99.90;;;;;;5014392;28;20186;-66
2023/10/30 04:47:58;;;;;;;2.80;2.60;;;11.70;99.90;;;;;;5014290;28;20194;-66
2023/10/30 04:50:23;;;;;;;6.90;2.43;;;11.80;99.90;;;;;;5014314;28;20167;-66
2023/10/30 04:52:49;;;;;;;2.67;2.47;;;11.80;99.90;;;;;;5014114;28;20579;-66
2023/10/30 04:55:15;;;;;;;2.47;2.27;;;11.80;99.90;;;;;;5014330;28;20610;-66
2023/10/30 04:57:40;;;;;;;3.80;2.67;;;11.70;99.90;;;;;;5014227;28;20446;-66
2023/10/30 05:00:07;;;;;;;6.23;3.90;;;11.70;99.90;;;;;;5014206;28;20254;-66
2023/10/30 05:02:32;;;;;;;4.57;4.27;;;11.60;99.90;;;;;;5014048;28;20175;-66
2023/10/30 05:04:58;;;;;;;6.60;6.10;;;11.70;99.90;;;;;;5012486;28;20483;-66
2023/10/30 05:07:23;;;;;;;5.97;5.47;;;11.70;99.90;;;;;;5013945;28;20191;-66
2023/10/30 05:09:49;;;;;;;6.07;5.47;;;11.70;99.90;;;;;;5013941;28;20179;-66
2023/10/30 05:12:15;;;;;;;5.70;5.30;;;11.70;99.90;;;;;;5013997;28;20194;-66
2023/10/30 05:14:40;;;;;;;6.60;6.00;;;11.80;99.90;;;;;;5013630;28;20552;-66
2023/10/30 05:17:06;;;;;;;4.33;3.93;;;11.80;99.90;;;;;;5013672;28;20657;-66
2023/10/30 05:19:31;;;;;;;3.80;3.27;;;11.80;99.90;;;;;;5013629;28;20170;-66
2023/10/30 05:21:57;;;;;;;5.33;3.47;;;11.70;99.90;;;;;;5013871;28;20170;-66
2023/10/30 05:24:25;;;;;;;4.60;4.30;;;11.70;99.90;;;;;;5012526;28;20174;-66
2023/10/30 05:26:52;;;;;;;5.67;5.17;;;11.60;99.90;;;;;;5013721;28;20190;-66
2023/10/30 05:29:18;;;;;;;4.53;4.23;;;11.50;99.90;;;;;;5013996;28;20523;-66
2023/10/30 05:31:44;;;;;;;5.93;5.37;;;11.50;99.90;;;;;;5013524;28;20414;-66
2023/10/30 05:34:09;;;;;;;6.80;6.30;;;11.40;99.90;;;;;;5013120;28;20977;-66
2023/10/30 05:36:35;;;;;;;5.90;5.40;;;11.30;99.90;;;;;;5013428;28;20285;-66
2023/10/30 05:39:00;;;;;;;7.87;7.20;;;11.30;99.90;;;;;;5013304;28;20245;-66
2023/10/30 05:41:26;;;;;;;7.03;6.33;;;11.30;99.90;;;;;;5013390;28;20174;-66
2023/10/30 05:43:52;;;;;;;7.40;6.83;;;11.30;99.90;;;;;;5013002;28;20258;-66
2023/10/30 05:46:18;;;;;;;7.33;6.63;;;11.30;99.90;;;;;;5013235;28;20210;-67
2023/10/30 05:48:44;;;;;;;7.20;6.60;;;11.20;99.90;;;;;;5013019;28;20503;-66
2023/10/30 05:51:10;;;;;;;8.23;7.43;;;11.10;99.90;;;;;;5013187;28;20181;-66
2023/10/30 05:53:36;;;;;;;8.53;7.73;;;11.10;99.90;;;;;;5012859;28;20450;-67
2023/10/30 05:56:01;;;;;;;7.47;6.83;;;11.00;99.90;;;;;;5013004;28;20481;-67
2023/10/30 05:58:27;;;;;;;8.40;7.60;;;11.00;99.90;;;;;;5012984;28;20187;-66
2023/10/30 06:00:52;;;;;;;9.20;7.47;;;11.00;99.90;;;;;;5013064;28;20628;-67
2023/10/30 06:03:18;;;;;;;8.17;7.47;;;10.90;99.90;;;;;;5012594;28;20171;-66
2023/10/30 06:05:44;;;;;;;8.43;7.63;;;10.90;99.90;;;;;;5012953;28;20183;-66
2023/10/30 06:08:10;;;;;;;8.60;7.67;;;10.90;99.90;;;;;;5012897;28;20202;-66
2023/10/30 06:10:37;;;;;;;9.07;8.37;;;10.80;99.90;;;;;;5013247;28;20422;-66
2023/10/30 06:13:03;;;;;;;9.30;8.50;;;10.70;99.90;;;;;;5012640;28;20418;-66
2023/10/30 06:15:28;;;;;;;11.50;10.30;;;10.70;99.90;;;;;;5013003;28;20481;-66
2023/10/30 06:17:54;;;;;;;12.20;10.23;;;10.70;99.90;;;;;;5012679;28;20191;-66
2023/10/30 06:20:19;;;;;;;12.13;10.57;;;10.70;99.90;;;;;;5012804;28;20179;-66
2023/10/30 06:22:45;;;;;;;12.13;10.93;;;10.70;99.90;;;;;;5012405;28;20171;-66
2023/10/30 06:25:10;;;;;;;12.57;11.57;;;10.70;99.90;;;;;;5012271;28;20182;-66
2023/10/30 06:27:36;;;;;;;13.90;12.40;;;10.80;99.90;;;;;;5012450;28;20228;-66
2023/10/30 06:30:02;;;;;;;17.63;12.00;;;10.80;99.90;;;;;;5012425;28;20167;-66
2023/10/30 06:32:28;;;;;;;14.03;12.63;;;10.80;99.90;;;;;;5012427;28;20420;-66
2023/10/30 06:34:54;;;;;;;13.40;12.10;;;10.80;99.90;;;;;;5011900;28;20628;-66
2023/10/30 06:37:19;;;;;;;13.97;12.37;;;10.80;99.90;;;;;;5012359;28;20218;-66
2023/10/30 06:39:45;;;;;;;13.30;12.03;;;10.90;99.90;;;;;;5012457;28;20452;-66
2023/10/30 06:42:10;;;;;;;13.03;11.83;;;10.90;99.90;;;;;;5012534;28;20233;-66
2023/10/30 06:44:36;;;;;;;12.70;11.50;;;10.90;99.90;;;;;;5012183;28;20217;-66
2023/10/30 06:47:02;;;;;;;14.33;12.93;;;11.00;99.90;;;;;;5006364;28;20176;-66
2023/10/30 06:49:27;;;;;;;14.07;12.67;;;11.10;99.90;;;;;;5007732;28;20186;-66
2023/10/30 06:51:53;;;;;;;17.47;13.30;;;11.20;99.90;;;;;;5009436;28;20766;-66
2023/10/30 06:54:19;;;;;;;17.87;14.20;;;11.30;99.90;;;;;;5011830;28;20186;-66
2023/10/30 06:56:44;;;;;;;13.00;11.87;;;11.40;99.90;;;;;;5010830;28;20199;-66
2023/10/30 06:59:12;;;;;;;14.57;12.63;;;11.50;99.90;;;;;;5007120;28;20819;-66
2023/10/30 07:01:43;;;;;;;12.00;10.70;;;11.80;99.90;;;;;;4992442;28;20186;-66
2023/10/30 07:04:10;;;;;;;13.23;12.10;;;12.00;99.90;;;;;;4992310;28;20430;-66
2023/10/30 07:06:37;;;;;;;12.80;11.70;;;12.20;99.90;;;;;;4992604;28;20425;-66
2023/10/30 07:09:03;;;;;;;11.50;10.50;;;12.40;99.90;;;;;;4996360;28;20460;-66
2023/10/30 07:11:29;;;;;;;14.43;11.00;;;12.60;99.90;;;;;;5012123;28;20424;-66
2023/10/30 07:13:55;;;;;;;12.53;11.33;;;12.80;99.90;;;;;;5011703;28;20418;-66
2023/10/30 07:16:20;;;;;;;11.13;10.03;;;12.80;99.90;;;;;;5011882;28;20260;-66
2023/10/30 07:18:46;;;;;;;10.43;9.53;;;12.90;99.90;;;;;;5011944;28;20195;-66
2023/10/30 07:21:11;;;;;;;11.87;10.87;;;13.00;99.90;;;;;;5011967;28;20163;-66
2023/10/30 07:23:37;;;;;;;11.20;10.10;;;13.10;99.90;;;;;;5010929;28;20290;-66
2023/10/30 07:26:02;;;;;;;9.90;9.10;;;13.40;99.90;;;;;;5011922;28;20198;-66
2023/10/30 07:28:28;;;;;;;10.00;9.13;;;13.80;99.90;;;;;;5011738;28;20214;-66
2023/10/30 07:30:53;;;;;;;9.40;8.50;;;13.90;99.90;;;;;;5011757;28;20660;-66
2023/10/30 07:33:19;;;;;;;9.60;8.90;;;14.30;99.90;;;;;;5011571;28;20170;-66
2023/10/30 07:35:45;;;;;;;11.20;10.10;;;14.50;99.90;;;;;;5011723;28;20198;-66
2023/10/30 07:38:10;;;;;;;9.17;7.70;;;15.00;99.90;;;;;;5011813;28;20665;-66
2023/10/30 07:40:36;;;;;;;8.57;7.87;;;15.40;99.90;;;;;;5011829;28;20175;-66
2023/10/30 07:43:02;;;;;;;8.93;8.13;;;15.80;99.90;;;;;;4997252;28;20547;-67
2023/10/30 07:45:27;;;;;;;7.90;7.20;;;16.20;99.90;;;;;;4992079;28;20656;-66
2023/10/30 07:47:53;;;;;;;10.40;7.63;;;16.50;99.90;;;;;;4993631;28;20435;-66
2023/10/30 07:50:19;;;;;;;8.50;7.60;;;17.20;99.90;;;;;;4994781;28;20176;-66
2023/10/30 07:52:45;;;;;;;7.17;6.47;;;17.70;99.90;;;;;;4995484;28;20283;-67
2023/10/30 07:55:10;;;;;;;8.07;7.30;;;17.90;99.90;;;;;;4995678;28;20237;-68
2023/10/30 07:57:36;;;;;;;8.07;6.80;;;18.10;99.90;;;;;;4995679;28;20439;-70
2023/10/30 08:00:02;;;;;;;6.83;6.20;;;17.60;99.90;;;;;;4995502;28;20168;-70
2023/10/30 08:02:30;;;;;;;7.00;6.40;;;17.50;99.90;;;;;;4995489;28;20687;-69
2023/10/30 08:04:56;;;;;;;7.43;6.83;;;17.10;99.90;;;;;;4994024;28;20936;-70
2023/10/30 08:07:21;;;;;;;6.63;6.03;;;17.10;99.90;;;;;;4995487;28;20572;-68
2023/10/30 08:09:47;;;;;;;6.93;6.53;;;17.40;99.90;;;;;;4995448;28;20429;-65
2023/10/30 08:12:13;;;;;;;6.27;5.73;;;17.60;99.90;;;;;;4994147;28;20205;-66
2023/10/30 08:14:38;;;;;;;7.47;6.87;;;17.10;99.90;;;;;;4995070;28;20222;-69
2023/10/30 08:17:04;;;;;;;7.43;6.83;;;16.80;99.90;;;;;;5009173;28;20974;-68
2023/10/30 08:19:29;;;;;;;6.30;5.80;;;17.10;99.90;;;;;;5014947;28;20687;-69
2023/10/30 08:21:55;;;;;;;6.43;5.83;;;17.40;99.90;;;;;;5014884;28;20221;-66
2023/10/30 08:24:20;;;;;;;7.07;6.57;;;17.20;99.90;;;;;;5014705;28;20167;-67
2023/10/30 08:26:46;;;;;;;6.13;5.60;;;17.40;99.90;;;;;;5014802;28;20194;-67
2023/10/30 08:29:11;;;;;;;6.87;6.30;;;18.10;99.90;;;;;;5014420;28;20210;-67
2023/10/30 08:31:38;;;;;;;6.10;5.60;;;19.10;99.90;;;;;;5014808;28;20210;-68
2023/10/30 08:34:04;;;;;;;6.00;5.40;;;19.30;99.90;;;;;;5014351;28;20421;-68
2023/10/30 08:36:29;;;;;;;5.40;5.00;;;19.90;99.90;;;;;;5014630;28;20210;-69
2023/10/30 08:38:55;;;;;;;6.23;4.97;;;20.60;99.90;;;;;;5014495;28;20588;-68
2023/10/30 08:41:22;;;;;;;5.83;5.33;;;21.20;99.90;;;;;;5014366;28;20599;-68
2023/10/30 08:43:47;;;;;;;6.33;5.73;;;21.70;99.90;;;;;;5014100;28;20168;-69
2023/10/30 08:46:17;;;;;;;5.50;5.00;;;22.40;99.90;;;;;;5014342;28;20988;-68
2023/10/30 08:48:43;;;;;;;4.90;4.50;;;22.80;99.90;;;;;;5014311;28;20199;-69
2023/10/30 08:51:09;;;;;;;5.93;5.53;;;23.10;99.90;;;;;;5014362;28;20501;-69
2023/10/30 08:53:35;;;;;;;5.00;4.60;;;24.10;99.90;;;;;;5013976;28;20521;-69
2023/10/30 08:56:00;;;;;;;5.00;4.60;;;24.80;99.30;;;;;;5014045;28;20301;-69
2023/10/30 08:58:26;;;;;;;4.33;4.03;;;25.30;97.50;;;;;;5013731;28;20445;-69
2023/10/30 09:00:51;;;;;;;8.03;4.13;;;25.50;94.90;;;;;;5014346;28;20171;-69
2023/10/30 09:03:17;;;;;;;5.13;4.73;;;25.80;92.60;;;;;;5013775;28;20179;-69
2023/10/30 09:05:42;;;;;;;4.23;3.93;;;25.50;92.00;;;;;;5014120;28;20171;-69
2023/10/30 09:08:08;;;;;;;6.70;4.97;;;25.70;90.90;;;;;;5014003;28;20199;-69
2023/10/30 09:10:34;;;;;;;4.17;3.77;;;24.70;92.80;;;;;;5013899;28;20184;-68
2023/10/30 09:13:00;;;;;;;4.70;4.30;;;24.30;93.10;;;;;;5013511;28;20174;-68
2023/10/30 09:15:25;;;;;;;4.90;4.50;;;23.40;96.00;;;;;;5013789;28;20463;-68
2023/10/30 09:17:52;;;;;;;4.80;4.40;;;23.20;97.80;;;;;;5013282;28;20217;-68
2023/10/30 09:20:17;;;;;;;7.90;4.00;;;23.20;98.00;;;;;;5013844;28;20174;-68
2023/10/30 09:22:43;;;;;;;4.17;3.87;;;23.40;98.00;;;;;;5013449;28;20409;-68
2023/10/30 09:25:08;;;;;;;3.87;3.57;;;23.90;96.00;;;;;;5013694;28;20179;-68
2023/10/30 09:27:35;;;;;;;4.67;4.27;;;24.70;93.70;;;;;;5013367;28;20687;-68
2023/10/30 09:30:00;;;;;;;3.90;3.60;;;24.70;93.00;;;;;;5013575;28;20183;-68
2023/10/30 09:32:26;;;;;;;4.40;4.10;;;25.10;92.20;;;;;;5012913;28;20444;-68
2023/10/30 09:34:51;;;;;;;3.63;3.30;;;25.40;90.50;;;;;;5013189;28;20206;-67
2023/10/30 09:37:17;;;;;;;3.67;3.47;;;25.00;91.30;;;;;;5013359;28;20238;-67
2023/10/30 09:39:43;;;;;;;4.00;3.60;;;24.30;91.60;;;;;;5007421;28;20233;-68
2023/10/30 09:42:08;;;;;;;4.60;4.20;;;23.90;93.50;;;;;;5008944;28;20179;-67
2023/10/30 09:44:34;;;;;;;4.70;4.30;;;23.20;94.10;;;;;;5012948;28;20241;-67
2023/10/30 09:47:02;;;;;;;5.07;4.67;;;21.60;99.90;;;;;;5012857;28;20310;-67
2023/10/30 09:49:28;;;;;;;4.50;4.20;;;21.70;99.90;;;;;;5013060;28;20171;-68
2023/10/30 09:51:55;;;;;;;3.70;3.40;;;22.10;99.90;;;;;;5013092;28;20426;-68
2023/10/30 09:54:21;;;;;;;4.40;4.10;;;22.30;99.90;;;;;;5012693;28;20943;-67
2023/10/30 09:56:48;;;;;;;5.73;3.97;;;22.20;99.90;;;;;;5011497;28;20465;-68
2023/10/30 09:59:16;;;;;;;4.43;3.93;;;21.60;99.90;;;;;;4999536;28;20438;-68
2023/10/30 10:01:42;;;;;;;4.67;4.23;;;21.00;99.90;;;;;;4993297;28;20422;-67
2023/10/30 10:04:07;;;;;;;4.53;4.13;;;21.00;99.90;;;;;;4992973;28;20429;-67
2023/10/30 10:06:33;;;;;;;4.17;3.77;;;20.50;99.90;;;;;;4993174;28;20422;-67
2023/10/30 10:09:00;;;;;;;4.63;4.13;;;20.60;99.90;;;;;;4993065;28;20200;-68
2023/10/30 10:11:32;;;;;;;3.40;3.20;;;20.90;99.90;;;;;;4992474;28;20258;-68
2023/10/30 10:13:58;;;;;;;3.63;3.33;;;21.50;99.90;;;;;;4992837;28;20430;-68
2023/10/30 10:16:26;;;;;;;3.93;3.73;;;22.30;99.90;;;;;;4992760;28;20819;-68
2023/10/30 10:18:52;;;;;;;4.17;3.60;;;23.00;99.90;;;;;;4992641;28;20203;-68
2023/10/30 10:21:17;;;;;;;3.70;3.50;;;23.00;99.10;;;;;;4993020;28;20411;-68
2023/10/30 10:23:45;;;;;;;3.80;2.83;;;23.20;98.80;;;;;;4992447;28;20254;-68
2023/10/30 10:26:14;;;;;;;3.33;3.03;;;23.50;97.40;;;;;;4992782;28;20175;-69
2023/10/30 10:28:47;;;;;;;3.60;3.40;;;23.30;97.40;;;;;;4992728;28;20671;-68
2023/10/30 10:31:14;;;;;;;4.80;3.40;;;23.00;98.80;;;;;;4992817;28;20418;-68
2023/10/30 10:33:39;;;;;;;3.37;2.90;;;22.60;99.60;;;;;;4992544;28;20419;-68
2023/10/30 10:36:06;;;;;;;6.03;3.10;;;21.40;99.90;;;;;;5008355;28;20460;-68
2023/10/30 10:38:31;;;;;;;4.53;3.47;;;20.70;99.90;;;;;;5009168;28;20254;-67
2023/10/30 10:40:58;;;;;;;3.50;2.80;;;20.40;99.90;;;;;;4993223;28;20781;-67
2023/10/30 10:43:27;;;;;;;3.70;3.40;;;20.10;99.90;;;;;;4992389;28;20172;-68
2023/10/30 10:45:56;;;;;;;4.40;3.90;;;19.70;99.90;;;;;;4992570;28;20430;-68
2023/10/30 10:48:27;;;;;;;3.03;2.83;;;19.40;99.90;;;;;;4992527;28;20442;-68
2023/10/30 10:50:54;;;;;;;3.83;3.53;;;18.50;99.90;;;;;;4992639;28;20472;-68
2023/10/30 10:53:20;;;;;;;5.23;3.37;;;17.90;99.90;;;;;;4992272;28;20872;-68
2023/10/30 10:55:47;;;;;;;4.03;3.27;;;17.60;99.90;;;;;;4992395;28;20481;-68
2023/10/30 10:58:33;;;;;;;3.57;3.27;;;17.70;99.90;;;;;;4992389;28;20202;-68
2023/10/30 11:01:01;;;;;;;3.73;3.53;;;17.50;99.90;;;;;;4992601;28;20426;-68
2023/10/30 11:03:27;;;;;;;2.70;2.50;;;17.50;99.90;;;;;;5010416;28;20492;-68
2023/10/30 11:05:53;;;;;;;3.03;2.73;;;17.50;99.90;;;;;;5012048;28;20433;-68
2023/10/30 11:08:47;;;;;;;3.00;2.77;;;17.30;99.90;;;;;;5012033;28;20444;-68
2023/10/30 11:11:33;;;;;;;3.17;2.70;;;17.30;99.90;;;;;;5011921;28;20911;-68
2023/10/30 11:14:08;;;;;;;3.23;2.93;;;17.30;99.90;;;;;;5011752;28;20977;-68
2023/10/30 11:16:43;;;;;;;4.43;3.33;;;17.30;99.90;;;;;;5011906;28;20465;-68
2023/10/30 11:19:09;;;;;;;3.20;2.90;;;17.30;99.90;;;;;;5011752;28;20521;-68
2023/10/30 11:21:35;;;;;;;3.30;3.00;;;17.20;99.90;;;;;;5011854;28;20452;-68
2023/10/30 11:24:01;;;;;;;3.93;3.53;;;17.20;99.90;;;;;;5015167;28;20417;-68
2023/10/30 11:26:29;;;;;;;3.50;2.63;;;17.10;99.90;;;;;;5015713;28;20240;-67
2023/10/30 11:28:59;;;;;;;2.20;2.10;;;17.00;99.90;;;;;;5016111;28;20206;-67
2023/10/30 11:31:29;;;;;;;2.60;1.90;;;17.00;99.90;;;;;;5015865;28;20433;-67
2023/10/30 11:34:12;;;;;;;4.50;1.60;;;16.90;99.90;;;;;;5015409;28;20425;-67
2023/10/30 11:36:38;;;;;;;3.90;2.27;;;16.80;99.90;;;;;;4996271;28;20468;-67
2023/10/30 11:39:10;;;;;;;2.97;2.17;;;16.60;99.90;;;;;;5012671;28;20437;-67
2023/10/30 11:41:49;;;;;;;1.73;1.40;;;16.50;99.90;;;;;;5015243;28;20429;-67
2023/10/30 11:44:15;;;;;;;2.57;2.13;;;16.50;99.90;;;;;;5015263;28;20417;-66
2023/10/30 11:46:47;;;;;;;4.17;1.60;;;16.50;99.90;;;;;;5015554;28;20524;-67
2023/10/30 11:49:13;;;;;;;5.10;1.67;;;16.50;99.90;;;;;;5013317;28;20477;-67
2023/10/30 11:51:44;;;;;;;1.90;1.80;;;16.50;99.90;;;;;;5015191;28;20484;-67
2023/10/30 11:54:10;;;;;;;1.70;1.33;;;16.60;99.90;;;;;;5015041;28;20478;-67
2023/10/30 11:56:36;;;;;;;1.90;1.80;;;16.70;99.90;;;;;;5015330;28;20977;-67
2023/10/30 11:59:03;;;;;;;2.33;1.60;;;16.70;99.90;;;;;;5013892;28;20191;-67
2023/10/30 12:01:31;;;;;;;4.43;2.30;;;16.80;99.90;;;;;;5015365;28;20608;-67
2023/10/30 12:03:56;;;;;;;4.00;1.63;;;16.90;99.90;;;;;;5014958;28;20414;-67
2023/10/30 12:06:25;;;;;;;1.77;1.67;;;16.90;99.90;;;;;;5015201;28;20440;-67
2023/10/30 12:08:51;;;;;;;2.07;1.90;;;17.10;99.90;;;;;;5015187;28;20215;-66
2023/10/30 12:11:17;;;;;;;3.87;1.70;;;17.40;99.90;;;;;;5015134;28;21015;-67
2023/10/30 12:13:42;;;;;;;1.73;1.50;;;17.90;99.90;;;;;;5014829;28;20175;-67
2023/10/30 12:16:08;;;;;;;2.00;1.53;;;18.70;99.90;;;;;;5014826;28;20199;-66
2023/10/30 12:18:35;;;;;;;3.30;1.70;;;19.10;99.90;;;;;;5014952;28;20252;-67
2023/10/30 12:21:01;;;;;;;2.83;1.70;;;19.30;99.90;;;;;;5015030;28;20163;-67
2023/10/30 12:23:29;;;;;;;2.63;1.67;;;19.40;99.90;;;;;;5014703;28;20453;-67
2023/10/30 12:26:07;;;;;;;2.00;1.80;;;19.20;99.90;;;;;;5014824;28;20632;-67
2023/10/30 12:28:38;;;;;;;1.77;1.67;;;18.70;99.90;;;;;;5014910;28;21140;-67
2023/10/30 12:31:20;;;;;;;2.03;1.90;;;18.50;99.90;;;;;;5014902;28;20422;-67
2023/10/30 12:33:46;;;;;;;2.03;1.93;;;18.40;99.90;;;;;;5012728;28;20509;-67
2023/10/30 12:36:12;;;;;;;2.20;1.97;;;18.30;99.90;;;;;;4997743;28;20454;-67
2023/10/30 12:38:38;;;;;;;1.97;1.60;;;17.80;99.90;;;;;;4995072;28;20431;-67
2023/10/30 12:41:06;;;;;;;1.60;1.50;;;17.30;99.90;;;;;;4993852;28;20183;-67